Time;durP1;ratioP1;P1;durP2;ratioP2;P2;SDS_P1;SDS_P2;PMS_P1;PMS_P2;Temp;Humidity;BMP_temperature;BMP_pressure;BME280_temperature;BME280_humidity;BME280_pressure;Samples;Min_cycle;Max_cycle;Signal;HPM_P1;HPM_P2
2022/04/07 00:02:13;;;;;;;11.73;5.65;;;10.30;99.90;;;;;;5118893;27;20043;-75
2022/04/07 00:04:38;;;;;;;17.33;5.57;;;10.30;99.90;;;;;;5101794;27;20436;-75
2022/04/07 00:07:04;;;;;;;14.35;5.05;;;10.30;99.90;;;;;;5118772;27;20393;-75
2022/04/07 00:09:30;;;;;;;15.70;5.13;;;10.30;99.90;;;;;;5118507;27;20476;-75
2022/04/07 00:11:55;;;;;;;17.98;5.78;;;10.30;99.90;;;;;;5085087;27;20053;-74
2022/04/07 00:14:21;;;;;;;11.15;4.90;;;10.20;99.90;;;;;;5118036;27;20047;-74
2022/04/07 00:16:46;;;;;;;13.55;4.47;;;10.10;99.90;;;;;;5118567;27;20120;-75
2022/04/07 00:19:12;;;;;;;14.07;4.82;;;10.10;99.90;;;;;;5119348;27;20051;-75
2022/04/07 00:21:40;;;;;;;14.25;4.28;;;10.10;99.90;;;;;;5119081;27;20055;-74
2022/04/07 00:24:07;;;;;;;16.38;3.85;;;10.10;99.90;;;;;;5117638;27;20051;-75
2022/04/07 00:26:34;;;;;;;11.63;3.03;;;10.10;99.90;;;;;;5101716;27;20375;-75
2022/04/07 00:29:00;;;;;;;13.38;3.40;;;10.00;99.90;;;;;;5118181;27;20082;-75
2022/04/07 00:31:26;;;;;;;10.25;2.85;;;10.10;99.90;;;;;;5101373;27;20053;-75
2022/04/07 00:33:52;;;;;;;11.02;2.97;;;10.00;99.90;;;;;;5117889;27;20386;-75
2022/04/07 00:36:17;;;;;;;12.20;2.70;;;10.00;99.90;;;;;;5117954;27;20054;-74
2022/04/07 00:38:44;;;;;;;9.18;2.10;;;10.00;99.90;;;;;;5118157;27;20470;-74
2022/04/07 00:41:10;;;;;;;10.18;2.33;;;10.00;99.90;;;;;;5117871;27;20054;-75
2022/04/07 00:43:36;;;;;;;13.88;2.33;;;10.00;99.90;;;;;;5117592;27;20102;-75
2022/04/07 00:46:04;;;;;;;11.73;2.30;;;10.00;99.90;;;;;;5118326;27;20450;-74
2022/04/07 00:48:35;;;;;;;11.75;2.72;;;10.10;99.90;;;;;;5117575;27;20470;-75
2022/04/07 00:51:01;;;;;;;12.05;2.30;;;10.10;99.90;;;;;;5117600;27;20528;-75
2022/04/07 00:53:27;;;;;;;14.60;2.92;;;10.00;99.90;;;;;;5100482;27;20078;-75
2022/04/07 00:55:53;;;;;;;11.43;3.00;;;10.00;99.90;;;;;;5117334;27;20050;-75
2022/04/07 00:58:19;;;;;;;10.95;3.17;;;10.00;99.90;;;;;;5117661;27;20051;-75
2022/04/07 01:00:45;;;;;;;12.18;2.78;;;10.10;99.90;;;;;;5117632;27;20051;-74
2022/04/07 01:03:11;;;;;;;11.82;2.72;;;10.00;99.90;;;;;;5083732;27;20047;-74
2022/04/07 01:05:38;;;;;;;11.48;3.08;;;10.00;99.90;;;;;;5117529;27;20103;-75
2022/04/07 01:08:07;;;;;;;10.05;2.83;;;9.90;99.90;;;;;;5117211;27;20051;-74
2022/04/07 01:10:33;;;;;;;14.13;3.10;;;10.00;99.90;;;;;;5117167;27;20047;-74
2022/04/07 01:12:59;;;;;;;14.60;2.95;;;10.00;99.90;;;;;;5117436;27;20058;-75
2022/04/07 01:15:25;;;;;;;19.58;3.35;;;10.00;99.90;;;;;;5117680;27;20051;-75
2022/04/07 01:17:51;;;;;;;12.95;3.10;;;10.00;99.90;;;;;;5117410;27;20397;-75
2022/04/07 01:20:16;;;;;;;12.90;2.97;;;10.00;99.90;;;;;;5117275;27;20047;-74
2022/04/07 01:22:46;;;;;;;12.55;3.33;;;10.00;99.90;;;;;;5117603;27;20055;-74
2022/04/07 01:25:13;;;;;;;20.88;3.95;;;10.10;99.90;;;;;;5116803;27;20096;-74
2022/04/07 01:27:38;;;;;;;15.50;3.40;;;10.10;99.90;;;;;;5116383;27;20082;-75
2022/04/07 01:30:10;;;;;;;20.98;3.63;;;10.10;99.90;;;;;;5116842;27;20075;-74
2022/04/07 01:32:52;;;;;;;14.00;4.18;;;10.00;99.90;;;;;;5116844;27;20047;-74
2022/04/07 01:35:18;;;;;;;20.48;4.85;;;10.00;99.90;;;;;;5117181;27;20043;-74
2022/04/07 01:37:46;;;;;;;16.30;4.22;;;9.90;99.90;;;;;;5082948;27;20051;-74
2022/04/07 01:40:16;;;;;;;31.98;5.63;;;9.80;99.90;;;;;;5117444;27;20073;-75
2022/04/07 01:42:46;;;;;;;15.65;5.38;;;9.80;99.90;;;;;;5117418;27;20057;-75
2022/04/07 01:45:12;;;;;;;26.38;6.05;;;9.80;99.90;;;;;;5100208;27;20061;-75
2022/04/07 01:47:42;;;;;;;25.35;6.68;;;9.80;99.90;;;;;;5116611;27;20126;-75
2022/04/07 01:50:10;;;;;;;17.77;6.88;;;9.80;99.90;;;;;;5099597;27;20052;-75
2022/04/07 01:52:37;;;;;;;16.95;6.45;;;9.80;99.90;;;;;;5095914;28;20098;-74
2022/04/07 01:55:03;;;;;;;16.92;6.18;;;9.70;99.90;;;;;;5112998;28;20048;-75
2022/04/07 01:57:33;;;;;;;17.85;7.43;;;9.80;99.90;;;;;;5113048;28;20048;-74
2022/04/07 02:00:00;;;;;;;19.67;5.40;;;9.80;99.90;;;;;;5113022;28;20073;-74
2022/04/07 02:02:26;;;;;;;20.60;5.70;;;9.70;99.90;;;;;;5113276;28;20048;-74
2022/04/07 02:05:00;;;;;;;16.08;4.50;;;9.60;99.90;;;;;;5096201;28;20083;-74
2022/04/07 02:07:31;;;;;;;16.67;4.82;;;9.60;99.90;;;;;;5113154;28;20052;-74
2022/04/07 02:09:58;;;;;;;24.27;5.65;;;9.60;99.90;;;;;;5113062;28;20566;-74
2022/04/07 02:12:24;;;;;;;18.73;5.22;;;9.60;99.90;;;;;;5113212;28;20087;-74
2022/04/07 02:14:50;;;;;;;25.27;5.50;;;9.60;99.90;;;;;;5114181;28;20059;-74
2022/04/07 02:17:20;;;;;;;18.02;5.63;;;9.60;99.90;;;;;;5113020;28;20043;-74
2022/04/07 02:19:54;;;;;;;19.35;4.70;;;9.60;99.90;;;;;;5113284;28;20054;-74
2022/04/07 02:22:20;;;;;;;22.02;5.85;;;9.70;99.90;;;;;;5113278;28;20054;-74
2022/04/07 02:24:47;;;;;;;23.92;6.53;;;9.70;99.90;;;;;;5112628;28;20483;-74
2022/04/07 02:27:14;;;;;;;23.25;5.35;;;9.70;99.90;;;;;;5112949;28;20067;-74
2022/04/07 02:29:40;;;;;;;23.77;5.03;;;9.70;99.90;;;;;;5112838;28;20051;-74
2022/04/07 02:32:06;;;;;;;26.23;5.55;;;9.70;99.90;;;;;;5113279;28;20047;-75
2022/04/07 02:34:32;;;;;;;23.95;5.15;;;9.70;99.90;;;;;;5096953;28;20506;-75
2022/04/07 02:36:58;;;;;;;20.33;4.57;;;9.70;99.90;;;;;;5112947;28;20044;-75
2022/04/07 02:39:23;;;;;;;25.48;4.20;;;9.70;99.90;;;;;;5116544;28;20104;-75
2022/04/07 02:41:49;;;;;;;20.30;4.18;;;9.80;99.90;;;;;;5100108;28;20040;-75
2022/04/07 02:44:15;;;;;;;19.50;3.95;;;9.70;99.90;;;;;;5117057;28;20052;-75
2022/04/07 02:46:40;;;;;;;25.63;4.35;;;9.90;99.90;;;;;;5116896;28;20075;-75
2022/04/07 02:49:06;;;;;;;20.75;5.05;;;9.90;99.90;;;;;;5116758;28;20047;-75
2022/04/07 02:51:32;;;;;;;22.40;3.80;;;9.90;99.90;;;;;;5099464;28;20065;-75
2022/04/07 02:53:59;;;;;;;27.00;6.47;;;10.00;99.90;;;;;;5116780;28;20044;-75
2022/04/07 02:56:26;;;;;;;20.85;5.00;;;10.00;99.90;;;;;;5116375;28;20138;-75
2022/04/07 02:58:51;;;;;;;17.38;5.65;;;10.00;99.90;;;;;;5116917;28;20052;-75
2022/04/07 03:01:18;;;;;;;12.95;5.07;;;10.00;99.90;;;;;;5116552;28;20039;-75
2022/04/07 03:03:44;;;;;;;22.95;6.10;;;10.00;99.90;;;;;;5116622;28;20054;-74
2022/04/07 03:06:10;;;;;;;27.25;6.18;;;9.90;99.90;;;;;;5116580;28;20051;-75
2022/04/07 03:08:35;;;;;;;18.67;5.85;;;9.90;99.90;;;;;;5099562;28;20043;-74
2022/04/07 03:11:02;;;;;;;16.83;5.88;;;9.90;99.90;;;;;;5116501;28;20047;-74
2022/04/07 03:13:28;;;;;;;16.88;5.57;;;9.90;99.90;;;;;;5099371;28;20047;-75
2022/04/07 03:15:54;;;;;;;16.13;5.45;;;9.90;99.90;;;;;;5116040;28;20384;-75
2022/04/07 03:18:20;;;;;;;21.63;5.22;;;9.80;99.90;;;;;;5116323;28;20161;-75
2022/04/07 03:20:46;;;;;;;18.83;5.85;;;9.80;99.90;;;;;;5116484;28;20489;-75
2022/04/07 03:23:12;;;;;;;20.88;5.50;;;9.90;99.90;;;;;;5099048;28;20083;-75
2022/04/07 03:25:37;;;;;;;20.15;5.82;;;9.80;99.90;;;;;;5115877;28;20086;-75
2022/04/07 03:28:04;;;;;;;20.98;5.93;;;9.90;99.90;;;;;;5116223;28;20079;-75
2022/04/07 03:30:30;;;;;;;15.63;4.22;;;9.90;99.90;;;;;;5098704;28;20043;-75
2022/04/07 03:32:55;;;;;;;18.50;4.70;;;9.80;99.90;;;;;;5116209;28;20046;-74
2022/04/07 03:35:21;;;;;;;16.85;4.93;;;9.80;99.90;;;;;;5099064;28;20052;-75
2022/04/07 03:37:47;;;;;;;26.63;5.15;;;9.80;99.90;;;;;;5116021;28;20409;-75
2022/04/07 03:40:13;;;;;;;16.88;4.60;;;9.90;99.90;;;;;;5115875;28;20100;-75
2022/04/07 03:42:38;;;;;;;22.08;5.57;;;9.90;99.90;;;;;;5116146;28;20051;-75
2022/04/07 03:45:05;;;;;;;21.50;4.78;;;10.00;99.90;;;;;;5115414;28;20402;-75
2022/04/07 03:47:31;;;;;;;14.23;4.07;;;10.00;99.90;;;;;;5115766;28;20101;-75
2022/04/07 03:49:57;;;;;;;20.60;3.35;;;10.00;99.90;;;;;;5114541;28;20043;-74
2022/04/07 03:52:23;;;;;;;15.90;4.03;;;9.90;99.90;;;;;;5098173;28;20063;-75
2022/04/07 03:54:49;;;;;;;18.20;3.95;;;9.90;99.90;;;;;;5114805;28;20047;-75
2022/04/07 03:57:14;;;;;;;15.35;3.30;;;9.90;99.90;;;;;;5115436;28;20044;-75
2022/04/07 03:59:42;;;;;;;19.50;4.18;;;9.80;99.90;;;;;;5115757;28;20164;-75
2022/04/07 04:02:10;;;;;;;19.88;3.88;;;9.70;99.90;;;;;;5115743;28;20092;-74
2022/04/07 04:04:36;;;;;;;20.10;3.90;;;9.70;99.90;;;;;;5115441;28;20047;-74
2022/04/07 04:07:03;;;;;;;17.08;3.30;;;9.80;99.90;;;;;;5115433;28;20054;-75
2022/04/07 04:09:29;;;;;;;21.90;3.55;;;9.80;99.90;;;;;;5115147;28;20077;-74
2022/04/07 04:11:54;;;;;;;22.67;4.28;;;9.80;99.90;;;;;;5098314;28;20048;-74
2022/04/07 04:14:20;;;;;;;23.48;3.50;;;9.80;99.90;;;;;;5115367;28;20051;-74
2022/04/07 04:16:46;;;;;;;15.23;3.60;;;9.80;99.90;;;;;;5115175;28;20043;-74
2022/04/07 04:19:11;;;;;;;20.83;3.78;;;9.90;99.90;;;;;;5115074;28;20080;-74
2022/04/07 04:21:37;;;;;;;26.20;4.32;;;9.80;99.90;;;;;;5115157;28;20046;-74
2022/04/07 04:24:03;;;;;;;25.10;4.20;;;9.90;99.90;;;;;;5115023;28;20094;-75
2022/04/07 04:26:29;;;;;;;27.85;4.63;;;9.80;99.90;;;;;;5114632;28;20047;-74
2022/04/07 04:28:55;;;;;;;30.20;4.75;;;9.80;99.90;;;;;;5114873;28;20135;-75
2022/04/07 04:31:24;;;;;;;25.02;4.57;;;9.80;99.90;;;;;;5114873;28;20418;-75
2022/04/07 04:33:53;;;;;;;30.25;5.00;;;9.70;99.90;;;;;;5115674;28;20055;-74
2022/04/07 04:36:20;;;;;;;30.35;3.92;;;9.70;99.90;;;;;;5097983;28;20054;-74
2022/04/07 04:38:46;;;;;;;26.15;4.05;;;9.60;99.90;;;;;;5115026;28;20040;-74
2022/04/07 04:41:12;;;;;;;28.98;4.30;;;9.50;99.90;;;;;;5097652;28;20134;-75
2022/04/07 04:43:37;;;;;;;30.80;4.45;;;9.50;99.90;;;;;;5097520;28;20127;-75
2022/04/07 04:46:03;;;;;;;24.23;4.35;;;9.50;99.90;;;;;;5114532;28;20096;-75
2022/04/07 04:48:29;;;;;;;26.02;4.03;;;9.50;99.90;;;;;;5114524;28;20047;-74
2022/04/07 04:50:57;;;;;;;31.55;4.68;;;9.50;99.90;;;;;;5115746;27;20182;-75
2022/04/07 04:53:24;;;;;;;27.27;4.45;;;9.60;99.90;;;;;;5117651;27;20054;-74
2022/04/07 04:55:50;;;;;;;24.58;4.15;;;9.50;99.90;;;;;;5100374;27;20050;-75
2022/04/07 04:58:16;;;;;;;23.55;4.45;;;9.60;99.90;;;;;;5101181;27;20474;-75
2022/04/07 05:00:42;;;;;;;21.10;5.10;;;9.60;99.90;;;;;;5101350;27;20386;-74
2022/04/07 05:03:09;;;;;;;28.73;4.80;;;9.60;99.90;;;;;;5117765;27;20092;-75
2022/04/07 05:05:34;;;;;;;29.25;4.55;;;9.60;99.90;;;;;;5117587;27;20053;-75
2022/04/07 05:08:00;;;;;;;23.30;4.82;;;9.70;99.90;;;;;;5118392;27;20043;-75
2022/04/07 05:10:26;;;;;;;26.40;4.85;;;9.70;99.90;;;;;;5117277;27;20042;-74
2022/04/07 05:12:53;;;;;;;25.20;4.72;;;9.70;99.90;;;;;;5117692;27;20121;-74
2022/04/07 05:15:19;;;;;;;26.88;4.20;;;9.70;99.90;;;;;;5117192;27;20470;-74
2022/04/07 05:17:49;;;;;;;16.48;3.42;;;9.70;99.90;;;;;;5117165;27;20043;-75
2022/04/07 05:20:15;;;;;;;16.48;3.28;;;9.60;99.90;;;;;;5117374;27;20488;-74
2022/04/07 05:22:41;;;;;;;27.30;4.10;;;9.50;99.90;;;;;;5083428;27;20047;-74
2022/04/07 05:25:07;;;;;;;10.63;2.40;;;9.40;99.90;;;;;;5100022;27;20072;-75
2022/04/07 05:27:36;;;;;;;14.52;2.58;;;9.00;99.90;;;;;;5117191;27;20100;-74
2022/04/07 05:30:10;;;;;;;24.08;3.35;;;8.90;99.90;;;;;;5117224;27;20047;-75
2022/04/07 05:32:35;;;;;;;15.05;3.00;;;8.80;99.90;;;;;;5117648;27;20054;-75
2022/04/07 05:35:01;;;;;;;13.57;1.77;;;8.60;99.90;;;;;;5099923;27;20055;-75
2022/04/07 05:37:27;;;;;;;8.15;1.30;;;8.40;99.90;;;;;;5117026;27;20047;-75
2022/04/07 05:39:52;;;;;;;7.93;1.20;;;8.10;99.90;;;;;;5099953;27;20092;-75
2022/04/07 05:42:18;;;;;;;9.73;1.27;;;7.60;99.90;;;;;;5116955;27;20087;-75
2022/04/07 05:44:44;;;;;;;11.13;1.10;;;7.40;99.90;;;;;;5100146;27;20039;-75
2022/04/07 05:47:10;;;;;;;9.70;1.60;;;7.50;99.90;;;;;;5116833;27;20043;-74
2022/04/07 05:49:36;;;;;;;13.63;1.98;;;7.30;99.90;;;;;;5116648;27;20039;-75
2022/04/07 05:52:04;;;;;;;7.75;2.00;;;7.20;99.90;;;;;;5116301;27;20047;-75
2022/04/07 05:54:31;;;;;;;10.15;1.40;;;7.20;99.90;;;;;;5116351;27;20555;-75
2022/04/07 05:56:56;;;;;;;8.65;1.70;;;7.20;99.90;;;;;;5116948;27;20080;-75
2022/04/07 05:59:22;;;;;;;11.07;2.10;;;7.20;99.90;;;;;;5116503;27;20063;-75
2022/04/07 06:01:48;;;;;;;11.68;2.13;;;7.30;99.90;;;;;;5116379;27;20043;-75
2022/04/07 06:04:14;;;;;;;11.30;1.38;;;7.30;99.90;;;;;;5116913;28;20051;-75
2022/04/07 06:06:39;;;;;;;6.63;1.17;;;7.30;99.90;;;;;;5116793;27;20459;-75
2022/04/07 06:09:05;;;;;;;10.23;1.20;;;7.10;99.90;;;;;;5099591;28;20075;-75
2022/04/07 06:11:31;;;;;;;14.05;1.45;;;6.90;99.90;;;;;;5116736;28;20043;-75
2022/04/07 06:13:57;;;;;;;7.28;0.80;;;6.80;99.90;;;;;;5116118;28;20051;-75
2022/04/07 06:16:22;;;;;;;8.38;1.45;;;6.80;99.90;;;;;;5116990;28;20072;-76
2022/04/07 06:18:48;;;;;;;13.23;2.13;;;6.80;99.90;;;;;;5116917;28;20047;-76
2022/04/07 06:21:14;;;;;;;26.52;4.90;;;6.70;99.90;;;;;;5116511;28;20043;-75
2022/04/07 06:23:40;;;;;;;14.65;2.80;;;6.60;99.90;;;;;;5116404;28;20123;-76
2022/04/07 06:26:06;;;;;;;9.88;1.38;;;6.60;99.90;;;;;;5116022;28;20051;-75
2022/04/07 06:28:32;;;;;;;6.28;1.05;;;6.50;99.90;;;;;;5099504;28;20050;-76
2022/04/07 06:30:58;;;;;;;5.68;0.82;;;6.40;99.90;;;;;;5116033;28;20394;-76
2022/04/07 06:33:23;;;;;;;10.10;1.42;;;6.50;99.90;;;;;;5099509;28;20051;-76
2022/04/07 06:35:50;;;;;;;5.43;0.82;;;6.60;99.90;;;;;;5116436;28;20058;-76
2022/04/07 06:38:16;;;;;;;9.52;0.82;;;6.70;99.90;;;;;;5116357;28;20047;-76
2022/04/07 06:40:42;;;;;;;5.22;0.75;;;6.80;99.90;;;;;;5116319;28;20092;-76
2022/04/07 06:43:08;;;;;;;6.30;1.00;;;6.90;99.90;;;;;;5116267;28;20043;-76
2022/04/07 06:45:33;;;;;;;7.15;1.15;;;7.00;99.90;;;;;;5116334;28;20054;-76
2022/04/07 06:47:59;;;;;;;8.73;0.93;;;7.10;99.90;;;;;;5116201;28;20129;-76
2022/04/07 06:50:25;;;;;;;6.75;0.70;;;7.20;99.90;;;;;;5116041;28;20039;-76
2022/04/07 06:52:52;;;;;;;10.43;1.02;;;7.20;99.90;;;;;;5115697;28;20103;-76
2022/04/07 06:55:18;;;;;;;2.75;0.63;;;7.20;99.90;;;;;;5115733;28;20055;-76
2022/04/07 06:57:51;;;;;;;5.97;0.90;;;7.10;99.90;;;;;;5099185;28;20087;-76
2022/04/07 07:00:18;;;;;;;5.75;0.50;;;7.10;99.90;;;;;;5116666;28;20432;-76
2022/04/07 07:02:45;;;;;;;5.85;0.82;;;7.10;99.90;;;;;;5116212;28;20086;-75
2022/04/07 07:05:11;;;;;;;3.05;0.63;;;7.30;99.90;;;;;;5115761;28;20047;-76
2022/04/07 07:07:37;;;;;;;3.80;0.52;;;7.20;99.90;;;;;;5115893;28;20043;-75
2022/04/07 07:10:03;;;;;;;3.45;0.82;;;7.20;99.90;;;;;;5116532;28;20112;-75
2022/04/07 07:12:28;;;;;;;5.25;1.10;;;7.30;99.90;;;;;;5116074;28;20043;-75
2022/04/07 07:14:54;;;;;;;4.88;0.60;;;7.30;99.90;;;;;;5116456;28;20504;-75
2022/04/07 07:17:20;;;;;;;3.45;0.43;;;7.20;99.90;;;;;;5115752;28;20046;-76
2022/04/07 07:19:45;;;;;;;4.35;0.68;;;7.30;99.90;;;;;;5115009;28;20043;-76
2022/04/07 07:22:11;;;;;;;5.18;0.60;;;7.30;99.90;;;;;;5114883;28;20092;-76
2022/04/07 07:24:36;;;;;;;6.00;0.77;;;7.50;99.90;;;;;;5116253;27;20060;-76
2022/04/07 07:27:02;;;;;;;2.42;0.43;;;7.50;99.90;;;;;;5119617;27;20043;-76
2022/04/07 07:29:29;;;;;;;3.65;0.52;;;7.40;99.90;;;;;;5137537;27;20485;-76
2022/04/07 07:31:55;;;;;;;4.07;0.50;;;7.60;99.90;;;;;;5118065;27;20087;-76
2022/04/07 07:34:20;;;;;;;4.18;0.60;;;7.60;99.90;;;;;;5118101;27;20082;-73
2022/04/07 07:36:46;;;;;;;3.40;0.20;;;7.50;99.90;;;;;;5119351;27;20556;-74
2022/04/07 07:39:12;;;;;;;3.55;0.40;;;7.50;99.90;;;;;;5119749;27;20493;-73
2022/04/07 07:41:38;;;;;;;2.20;0.52;;;7.50;99.90;;;;;;5102386;27;20112;-72
2022/04/07 07:44:05;;;;;;;3.95;0.70;;;7.50;99.90;;;;;;5119273;27;20100;-72
2022/04/07 07:46:32;;;;;;;4.65;0.40;;;7.50;99.90;;;;;;5118937;27;20090;-72
2022/04/07 07:48:57;;;;;;;5.15;0.45;;;7.40;99.90;;;;;;5102077;27;20043;-72
2022/04/07 07:51:23;;;;;;;5.20;1.17;;;7.30;99.90;;;;;;5119132;27;20203;-72
2022/04/07 07:53:49;;;;;;;4.95;0.90;;;7.40;99.90;;;;;;5118936;27;20059;-72
2022/04/07 07:56:15;;;;;;;9.60;1.45;;;7.40;99.90;;;;;;5125126;27;20128;-73
2022/04/07 07:58:41;;;;;;;6.40;0.68;;;7.50;99.90;;;;;;5141362;27;20092;-72
2022/04/07 08:01:06;;;;;;;5.45;0.60;;;7.50;99.90;;;;;;5118905;27;20046;-74
2022/04/07 08:03:32;;;;;;;4.72;0.70;;;7.40;99.90;;;;;;5118910;27;20053;-74
2022/04/07 08:05:59;;;;;;;5.07;0.82;;;7.40;99.90;;;;;;5119056;27;20035;-74
2022/04/07 08:08:25;;;;;;;7.55;0.75;;;7.30;99.90;;;;;;5118789;27;20472;-74
2022/04/07 08:10:50;;;;;;;5.88;1.00;;;7.40;99.90;;;;;;5118039;27;20054;-73
2022/04/07 08:13:16;;;;;;;5.72;0.65;;;7.50;99.90;;;;;;5118723;27;20036;-74
2022/04/07 08:15:42;;;;;;;3.80;0.75;;;7.50;99.90;;;;;;5118686;27;20054;-73
2022/04/07 08:18:08;;;;;;;3.85;0.73;;;7.50;99.90;;;;;;5101645;27;20172;-74
2022/04/07 08:20:34;;;;;;;4.25;0.63;;;7.50;99.90;;;;;;5118496;27;20478;-73
2022/04/07 08:22:59;;;;;;;10.65;1.00;;;7.50;99.90;;;;;;5119648;27;20081;-74
2022/04/07 08:25:25;;;;;;;6.00;0.70;;;7.40;99.90;;;;;;5118495;27;20042;-73
2022/04/07 08:27:51;;;;;;;5.65;0.57;;;7.50;99.90;;;;;;5118484;27;20039;-73
2022/04/07 08:30:16;;;;;;;4.93;0.70;;;7.60;99.90;;;;;;5117939;27;20391;-74
2022/04/07 08:32:42;;;;;;;4.13;0.80;;;7.80;99.90;;;;;;5118415;27;20069;-74
2022/04/07 08:35:10;;;;;;;7.38;0.75;;;8.00;99.90;;;;;;5117868;27;20437;-74
2022/04/07 08:37:37;;;;;;;3.38;0.65;;;8.20;99.90;;;;;;5118186;27;20050;-75
2022/04/07 08:40:06;;;;;;;5.45;0.70;;;8.50;99.90;;;;;;5118207;27;20055;-74
2022/04/07 08:42:33;;;;;;;4.10;0.75;;;8.70;99.90;;;;;;5117987;27;20047;-74
2022/04/07 08:44:59;;;;;;;8.30;2.08;;;8.80;99.90;;;;;;5118360;27;20137;-74
2022/04/07 08:47:25;;;;;;;4.78;1.02;;;8.90;99.90;;;;;;5117999;27;20450;-74
2022/04/07 08:49:52;;;;;;;5.95;1.17;;;9.00;99.90;;;;;;5117825;27;20081;-75
2022/04/07 08:52:19;;;;;;;8.07;1.10;;;9.20;99.90;;;;;;5117618;27;20078;-75
2022/04/07 08:54:45;;;;;;;4.68;0.70;;;9.30;99.90;;;;;;5117573;27;20042;-75
2022/04/07 08:57:12;;;;;;;7.05;0.68;;;9.50;99.90;;;;;;5117852;27;20058;-74
2022/04/07 08:59:37;;;;;;;7.68;1.00;;;9.60;99.90;;;;;;5117729;27;20478;-75
2022/04/07 09:02:05;;;;;;;8.18;1.20;;;9.70;99.90;;;;;;5117482;27;20053;-74
2022/04/07 09:04:35;;;;;;;9.07;0.95;;;9.80;99.90;;;;;;5119524;27;20047;-73
2022/04/07 09:07:01;;;;;;;6.47;0.90;;;9.50;99.90;;;;;;5117886;27;20461;-74
2022/04/07 09:09:31;;;;;;;7.32;1.00;;;9.60;99.90;;;;;;5117200;27;20079;-72
2022/04/07 09:11:57;;;;;;;7.65;0.88;;;9.50;99.90;;;;;;5117503;27;20129;-72
2022/04/07 09:14:23;;;;;;;10.52;1.38;;;9.40;99.90;;;;;;5117604;27;20075;-71
2022/04/07 09:16:55;;;;;;;8.55;0.98;;;9.50;99.90;;;;;;5117424;27;20047;-72
2022/04/07 09:19:22;;;;;;;10.38;1.25;;;9.50;99.90;;;;;;5117194;27;20058;-72
2022/04/07 09:22:05;;;;;;;10.00;1.20;;;9.50;99.90;;;;;;5117509;27;20039;-73
2022/04/07 09:24:34;;;;;;;8.38;1.10;;;9.30;99.90;;;;;;5117303;27;20043;-72
2022/04/07 09:27:03;;;;;;;12.18;1.38;;;9.30;99.90;;;;;;5099480;27;20505;-68
2022/04/07 09:29:40;;;;;;;7.55;1.23;;;9.50;99.90;;;;;;5116831;27;20047;-73
2022/04/07 09:32:17;;;;;;;7.38;1.08;;;9.70;99.90;;;;;;5116937;27;20042;-73
2022/04/07 09:34:43;;;;;;;12.88;1.20;;;10.20;99.90;;;;;;5116956;27;20091;-72
2022/04/07 09:37:10;;;;;;;9.57;1.10;;;10.20;99.90;;;;;;5135187;27;20099;-72
2022/04/07 09:39:39;;;;;;;13.00;1.15;;;10.20;99.90;;;;;;5116761;27;20058;-71
2022/04/07 09:42:25;;;;;;;10.57;1.27;;;10.10;99.90;;;;;;5117004;27;20047;-71
2022/04/07 09:44:54;;;;;;;10.37;1.50;;;10.30;99.90;;;;;;5135259;27;20130;-74
2022/04/07 09:47:21;;;;;;;12.48;1.58;;;10.00;99.90;;;;;;5115818;27;20047;-73
2022/04/07 09:49:50;;;;;;;8.55;1.30;;;10.30;99.90;;;;;;5116692;27;20085;-72
2022/04/07 09:52:21;;;;;;;7.60;1.20;;;10.50;99.90;;;;;;5112859;28;20051;-73
2022/04/07 09:54:50;;;;;;;10.00;1.27;;;10.90;99.90;;;;;;5112962;28;20367;-73
2022/04/07 09:57:18;;;;;;;11.32;1.25;;;11.10;99.90;;;;;;5096564;28;20475;-73
2022/04/07 09:59:45;;;;;;;9.10;1.80;;;10.80;99.90;;;;;;5113314;28;20406;-73
2022/04/07 10:02:11;;;;;;;9.25;1.30;;;10.70;99.90;;;;;;5113293;28;20043;-72
2022/04/07 10:04:37;;;;;;;10.15;1.15;;;10.80;99.90;;;;;;5113285;28;20058;-72
2022/04/07 10:07:08;;;;;;;18.58;2.03;;;10.60;99.90;;;;;;5113327;28;20044;-73
2022/04/07 10:09:35;;;;;;;14.52;1.70;;;10.70;99.90;;;;;;5113154;28;20051;-72
2022/04/07 10:12:02;;;;;;;12.00;1.20;;;10.70;99.90;;;;;;5114193;28;20050;-72
2022/04/07 10:14:29;;;;;;;13.93;2.13;;;10.30;99.90;;;;;;5096601;28;20105;-73
2022/04/07 10:16:55;;;;;;;12.30;1.90;;;10.00;99.90;;;;;;5113162;28;20421;-72
2022/04/07 10:19:33;;;;;;;9.95;1.90;;;9.70;99.90;;;;;;5113052;28;20054;-72
2022/04/07 10:22:26;;;;;;;11.27;1.50;;;9.60;99.90;;;;;;5113317;28;20391;-72
2022/04/07 10:25:03;;;;;;;15.00;1.70;;;9.80;99.90;;;;;;5112808;28;20047;-73
2022/04/07 10:27:33;;;;;;;11.80;1.52;;;9.90;99.90;;;;;;5112973;28;20485;-74
2022/04/07 10:30:02;;;;;;;11.82;1.73;;;9.80;99.90;;;;;;5112805;28;20486;-75
2022/04/07 10:32:47;;;;;;;15.95;1.73;;;9.60;99.90;;;;;;5112982;28;20474;-76
2022/04/07 10:35:39;;;;;;;10.57;2.03;;;9.50;99.90;;;;;;5112722;28;20051;-71
2022/04/07 10:38:14;;;;;;;10.27;1.52;;;9.50;99.90;;;;;;5113104;28;20051;-71
2022/04/07 10:40:49;;;;;;;11.55;1.85;;;9.40;99.90;;;;;;5113104;28;20104;-71
2022/04/07 10:43:14;;;;;;;14.63;2.30;;;9.70;99.90;;;;;;5116003;28;20048;-73
2022/04/07 10:46:09;;;;;;;24.20;3.58;;;9.60;99.90;;;;;;5115352;28;20047;-73
2022/04/07 10:48:58;;;;;;;15.30;1.70;;;9.80;99.90;;;;;;5104826;28;20055;-75
2022/04/07 10:51:45;;;;;;;15.77;1.83;;;10.10;99.90;;;;;;5114096;28;20039;-78
2022/04/07 10:54:12;;;;;;;12.98;2.00;;;10.20;99.90;;;;;;5112992;28;20055;-77
2022/04/07 10:56:41;;;;;;;10.93;1.13;;;10.00;99.90;;;;;;5112342;28;20475;-77
2022/04/07 10:59:10;;;;;;;16.13;2.78;;;9.80;99.90;;;;;;5114528;28;20436;-77
2022/04/07 11:01:56;;;;;;;12.75;2.35;;;9.60;99.90;;;;;;5116662;28;20470;-77
2022/04/07 11:04:22;;;;;;;19.23;2.45;;;9.10;99.90;;;;;;5116433;28;20106;-73
2022/04/07 11:07:07;;;;;;;16.38;2.90;;;9.00;99.90;;;;;;5119646;28;20052;-73
2022/04/07 11:09:46;;;;;;;12.02;3.00;;;8.80;99.90;;;;;;5116349;28;20052;-73
2022/04/07 11:12:22;;;;;;;17.23;2.80;;;8.80;99.90;;;;;;5116405;28;20130;-74
2022/04/07 11:14:50;;;;;;;11.90;1.40;;;8.90;99.90;;;;;;5117188;28;20052;-75
2022/04/07 11:17:33;;;;;;;15.77;1.95;;;9.00;99.90;;;;;;5116328;28;20534;-76
2022/04/07 11:20:14;;;;;;;10.70;1.67;;;9.10;99.90;;;;;;5117344;28;20036;-74
2022/04/07 11:22:56;;;;;;;10.00;2.13;;;9.50;99.90;;;;;;5117268;28;20047;-72
2022/04/07 11:25:29;;;;;;;15.23;1.83;;;9.70;99.90;;;;;;5098566;28;20394;-73
2022/04/07 11:28:18;;;;;;;16.50;1.90;;;9.70;99.90;;;;;;5116553;28;20467;-70
2022/04/07 11:30:47;;;;;;;13.50;1.92;;;9.80;99.90;;;;;;5115808;28;20119;-78
2022/04/07 11:33:25;;;;;;;9.63;1.58;;;9.90;99.90;;;;;;5116236;28;20105;-75
2022/04/07 11:36:00;;;;;;;22.48;2.80;;;10.10;99.90;;;;;;5116068;28;20059;-75
2022/04/07 11:38:33;;;;;;;14.65;2.28;;;10.50;99.90;;;;;;5099194;28;20108;-75
2022/04/07 11:41:07;;;;;;;19.58;2.08;;;10.40;99.90;;;;;;5116319;28;20047;-75
2022/04/07 11:43:35;;;;;;;11.15;2.20;;;10.50;99.90;;;;;;5115898;28;20096;-74
2022/04/07 11:46:04;;;;;;;16.13;2.97;;;10.30;99.90;;;;;;5115756;28;20055;-71
2022/04/07 11:48:36;;;;;;;17.23;2.78;;;10.00;99.90;;;;;;5115791;28;20102;-75
2022/04/07 11:51:14;;;;;;;14.15;2.53;;;9.90;99.90;;;;;;5115515;28;20040;-76
2022/04/07 11:53:41;;;;;;;14.38;2.25;;;9.90;99.90;;;;;;5115299;28;20055;-75
2022/04/07 11:56:19;;;;;;;22.13;2.78;;;10.00;99.90;;;;;;5115234;28;20050;-75
2022/04/07 11:58:56;;;;;;;17.42;2.00;;;10.20;99.90;;;;;;5116609;28;20047;-76
2022/04/07 12:01:22;;;;;;;16.17;2.60;;;10.20;99.90;;;;;;5115561;28;20043;-76
2022/04/07 12:03:55;;;;;;;13.40;1.80;;;10.20;99.90;;;;;;5098497;28;20047;-75
2022/04/07 12:06:22;;;;;;;16.02;1.90;;;10.30;99.90;;;;;;5115433;28;20087;-81
2022/04/07 12:08:49;;;;;;;14.38;2.10;;;10.30;99.90;;;;;;5099136;28;20387;-86
2022/04/07 12:11:15;;;;;;;14.77;1.88;;;10.40;99.90;;;;;;5080085;28;20051;-77
2022/04/07 12:13:40;;;;;;;16.08;2.20;;;10.50;99.90;;;;;;5115029;28;20040;-76
2022/04/07 12:16:09;;;;;;;17.52;2.20;;;10.50;99.90;;;;;;5115758;28;20044;-72
2022/04/07 12:18:35;;;;;;;14.23;2.10;;;10.60;99.90;;;;;;5098023;28;20046;-76
2022/04/07 12:21:03;;;;;;;12.88;1.88;;;10.20;99.90;;;;;;5115467;28;20048;-74
2022/04/07 12:23:29;;;;;;;17.92;2.33;;;10.30;99.90;;;;;;5098366;28;20078;-75
2022/04/07 12:25:59;;;;;;;17.45;2.30;;;10.50;99.90;;;;;;5115425;28;20047;-74
2022/04/07 12:28:33;;;;;;;13.13;1.80;;;10.60;99.90;;;;;;5098082;28;20035;-74
2022/04/07 12:31:00;;;;;;;12.48;1.83;;;10.50;99.90;;;;;;5115063;28;20044;-73
2022/04/07 12:33:42;;;;;;;20.67;2.70;;;10.30;99.90;;;;;;5114788;28;20083;-73
2022/04/07 12:36:10;;;;;;;13.38;2.33;;;10.10;99.90;;;;;;5114863;28;20055;-72
2022/04/07 12:38:36;;;;;;;7.00;1.65;;;9.70;99.90;;;;;;5114835;28;20546;-73
2022/04/07 12:41:16;;;;;;;9.32;1.30;;;8.90;99.90;;;;;;5097666;28;20097;-73
2022/04/07 12:43:51;;;;;;;13.63;1.38;;;8.00;99.90;;;;;;5115060;28;20044;-73
2022/04/07 12:46:20;;;;;;;13.10;1.85;;;8.10;99.90;;;;;;5114744;28;20047;-74
2022/04/07 12:49:04;;;;;;;8.95;1.40;;;8.40;99.90;;;;;;5114592;28;20554;-71
2022/04/07 12:51:34;;;;;;;8.88;1.00;;;8.80;99.90;;;;;;5114548;28;20380;-71
2022/04/07 12:54:12;;;;;;;9.45;1.63;;;9.00;99.90;;;;;;5135287;27;20062;-71